createdAt,value
2023-09-01T00:01:02.377Z,101224.47
2023-09-01T00:03:29.107Z,101217.47
2023-09-01T00:05:55.691Z,101212.16
2023-09-01T00:08:22.274Z,101209.50
2023-09-01T00:10:48.797Z,101206.84
2023-09-01T00:13:15.312Z,101217.47
2023-09-01T00:15:41.819Z,101214.16
2023-09-01T00:18:08.241Z,101214.78
2023-09-01T00:20:36.145Z,101188.69
2023-09-01T00:23:04.818Z,101213.16
2023-09-01T00:25:32.039Z,101201.84
2023-09-01T00:27:58.495Z,101178.38
2023-09-01T00:30:30.569Z,101208.47
2023-09-01T00:32:57.641Z,101221.09
2023-09-01T00:35:24.120Z,101224.91
2023-09-01T00:37:52.669Z,101219.56
2023-09-01T00:40:19.279Z,101224.41
2023-09-01T00:42:45.717Z,101234.34
2023-09-01T00:45:12.305Z,101220.72
2023-09-01T00:47:38.844Z,101234.34
2023-09-01T00:50:09.829Z,101239.66
2023-09-01T00:52:36.864Z,101225.38
2023-09-01T00:55:04.306Z,101239.53
2023-09-01T00:57:31.001Z,101221.06
2023-09-01T00:59:58.199Z,101230.03
2023-09-01T01:02:26.813Z,101223.56
2023-09-01T01:04:56.152Z,101234.69
2023-09-01T01:07:31.249Z,101227.72
2023-09-01T01:10:17.658Z,101224.38
2023-09-01T01:12:58.811Z,101231.03
2023-09-01T01:15:26.383Z,101226.53
2023-09-01T01:17:56.297Z,101219.56
2023-09-01T01:20:34.453Z,101222.88
2023-09-01T01:23:12.187Z,101218.06
2023-09-01T01:25:46.450Z,101223.06
2023-09-01T01:28:13.139Z,101217.75
2023-09-01T01:30:40.455Z,101209.09
2023-09-01T01:33:15.606Z,101221.22
2023-09-01T01:35:54.833Z,101208.28
2023-09-01T01:38:29.249Z,101215.53
2023-09-01T01:41:11.028Z,101174.13
2023-09-01T01:43:39.625Z,101185.44
2023-09-01T01:46:07.212Z,101220.19
2023-09-01T01:48:39.780Z,101216.69
2023-09-01T01:51:09.086Z,101215.72
2023-09-01T01:53:36.335Z,101221.34
2023-09-01T01:56:04.886Z,101213.91
2023-09-01T01:58:32.162Z,101196.59
2023-09-01T02:00:59.406Z,101207.13
2023-09-01T02:03:25.888Z,101183.00
2023-09-01T02:05:54.622Z,101207.13
2023-09-01T02:08:22.578Z,101198.81
2023-09-01T02:10:49.834Z,101212.44
2023-09-01T02:13:16.266Z,101224.03
2023-09-01T02:15:51.761Z,101222.34
2023-09-01T02:18:18.425Z,101217.41
2023-09-01T02:20:46.499Z,101203.41
2023-09-01T02:23:21.002Z,101199.91
2023-09-01T02:25:47.528Z,101192.94
2023-09-01T02:28:14.357Z,101197.25
2023-09-01T02:30:41.049Z,101206.41
2023-09-01T02:33:07.823Z,101200.09
2023-09-01T02:35:42.890Z,101214.53
2023-09-01T02:38:09.340Z,101211.06
2023-09-01T02:40:35.775Z,101194.75
2023-09-01T02:43:02.197Z,101188.91
2023-09-01T02:45:28.696Z,101210.72
2023-09-01T02:47:55.185Z,101214.34
2023-09-01T02:50:21.708Z,101205.53
2023-09-01T02:52:48.179Z,101215.84
2023-09-01T02:55:17.345Z,101217.38
2023-09-01T02:57:43.806Z,101217.38
2023-09-01T03:00:19.336Z,101217.03
2023-09-01T03:02:46.757Z,101194.09
2023-09-01T03:05:13.478Z,101202.75
2023-09-01T03:07:40.296Z,101199.13
2023-09-01T03:10:09.197Z,101183.81
2023-09-01T03:12:38.724Z,101190.66
2023-09-01T03:15:10.432Z,101171.88
2023-09-01T03:17:37.193Z,101196.16
2023-09-01T03:20:05.560Z,101187.84
2023-09-01T03:22:32.486Z,101187.34
2023-09-01T03:24:58.950Z,101190.13
2023-09-01T03:27:25.408Z,101188.97
2023-09-01T03:29:55.185Z,101198.78
2023-09-01T03:32:21.709Z,101204.09
2023-09-01T03:34:48.276Z,101193.28
2023-09-01T03:37:14.795Z,101204.09
2023-09-01T03:39:41.263Z,101191.44
2023-09-01T03:42:07.763Z,101204.09
2023-09-01T03:44:34.512Z,101185.09
2023-09-01T03:47:00.985Z,101194.09
2023-09-01T03:49:27.862Z,101179.00
2023-09-01T03:51:54.412Z,101187.78
2023-09-01T03:54:20.844Z,101190.97
2023-09-01T03:56:47.279Z,101177.00
2023-09-01T03:59:13.735Z,101190.28
2023-09-01T04:01:40.216Z,101186.47
2023-09-01T04:04:07.657Z,101179.81
2023-09-01T04:06:34.144Z,101186.63
2023-09-01T04:09:00.700Z,101185.81
2023-09-01T04:11:27.164Z,101189.63
2023-09-01T04:13:56.255Z,101187.78
2023-09-01T04:16:23.449Z,101185.31
2023-09-01T04:18:50.010Z,101181.50
2023-09-01T04:21:16.518Z,101186.63
2023-09-01T04:23:43.088Z,101173.81
2023-09-01T04:26:09.715Z,101184.78
2023-09-01T04:28:36.186Z,101195.94
2023-09-01T04:31:03.824Z,101189.63
2023-09-01T04:33:31.089Z,101196.44
2023-09-01T04:36:01.644Z,101190.97
2023-09-01T04:38:28.172Z,101189.47
2023-09-01T04:40:56.767Z,101190.88
2023-09-01T04:43:26.625Z,101187.63
2023-09-01T04:45:56.962Z,101171.00
2023-09-01T04:48:24.262Z,101178.28
2023-09-01T04:50:51.227Z,101180.06
2023-09-01T04:53:18.771Z,101178.50
2023-09-01T04:55:45.624Z,101172.69
2023-09-01T04:58:12.212Z,101190.41
2023-09-01T05:00:39.072Z,101194.75
2023-09-01T05:03:05.802Z,101193.41
2023-09-01T05:05:32.322Z,101202.69
2023-09-01T05:07:58.821Z,101194.53
2023-09-01T05:10:25.278Z,101202.50
2023-09-01T05:12:51.744Z,101207.94
2023-09-01T05:15:20.053Z,101212.59
2023-09-01T05:17:47.253Z,101201.97
2023-09-01T05:20:13.740Z,101212.25
2023-09-01T05:22:40.373Z,101210.25
2023-09-01T05:25:07.525Z,101207.38
2023-09-01T05:27:33.942Z,101209.53
2023-09-01T05:30:00.561Z,101202.56
2023-09-01T05:32:27.031Z,101201.91
2023-09-01T05:34:53.527Z,101177.31
2023-09-01T05:37:19.969Z,101212.50
2023-09-01T05:39:46.404Z,101198.69
2023-09-01T05:42:13.124Z,101203.38
2023-09-01T05:44:39.581Z,101208.19
2023-09-01T05:47:06.237Z,101210.00
2023-09-01T05:49:33.905Z,101197.53
2023-09-01T05:52:01.821Z,101196.50
2023-09-01T05:54:28.644Z,101194.47
2023-09-01T05:56:55.642Z,101195.31
2023-09-01T05:59:22.410Z,101190.34
2023-09-01T06:01:49.187Z,101185.06
2023-09-01T06:04:15.649Z,101170.78
2023-09-01T06:06:42.920Z,101181.38
2023-09-01T06:09:09.834Z,101194.03
2023-09-01T06:11:38.316Z,101202.31
2023-09-01T06:14:05.038Z,101201.16
2023-09-01T06:16:31.501Z,101203.28
2023-09-01T06:19:04.405Z,101209.78
2023-09-01T06:21:32.256Z,101218.44
2023-09-01T06:23:58.833Z,101222.78
2023-09-01T06:26:25.281Z,101226.09
2023-09-01T06:28:51.742Z,101219.81
2023-09-01T06:31:18.304Z,101232.25
2023-09-01T06:33:45.993Z,101224.09
2023-09-01T06:36:14.466Z,101227.91
2023-09-01T06:38:42.404Z,101224.78
2023-09-01T06:41:10.144Z,101231.72
2023-09-01T06:43:37.244Z,101225.91
2023-09-01T06:46:04.216Z,101219.72
2023-09-01T06:48:32.373Z,101233.38
2023-09-01T06:51:03.651Z,101235.88
2023-09-01T06:53:30.895Z,101235.88
2023-09-01T06:55:57.461Z,101230.06
2023-09-01T06:58:23.997Z,101209.06
2023-09-01T07:00:52.683Z,101235.34
2023-09-01T07:03:21.321Z,101232.03
2023-09-01T07:05:55.253Z,101191.88
2023-09-01T07:08:22.061Z,101206.47
2023-09-01T07:10:48.610Z,101216.38
2023-09-01T07:13:15.098Z,101231.53
2023-09-01T07:15:41.603Z,101219.16
2023-09-01T07:18:08.209Z,101229.53
2023-09-01T07:20:34.654Z,101225.59
2023-09-01T07:23:01.144Z,101216.34
2023-09-01T07:25:27.568Z,101222.72
2023-09-01T07:27:54.048Z,101204.56
2023-09-01T07:30:20.829Z,101198.06
2023-09-01T07:32:48.196Z,101218.97
2023-09-01T07:35:14.710Z,101215.56
2023-09-01T07:37:41.152Z,101200.88
2023-09-01T07:40:08.188Z,101213.09
2023-09-01T07:42:34.643Z,101212.22
2023-09-01T07:45:01.097Z,101212.47
2023-09-01T07:47:27.742Z,101211.94
2023-09-01T07:49:54.213Z,101210.91
2023-09-01T07:52:20.662Z,101217.28
2023-09-01T07:54:47.136Z,101216.09
2023-09-01T07:57:13.615Z,101219.22
2023-09-01T07:59:41.006Z,101217.09
2023-09-01T08:02:07.579Z,101221.72
2023-09-01T08:04:34.164Z,101225.06
2023-09-01T08:07:00.861Z,101217.38
2023-09-01T08:09:27.745Z,101228.56
2023-09-01T08:11:54.170Z,101229.88
2023-09-01T08:14:20.652Z,101226.38
2023-09-01T08:16:47.094Z,101236.50
2023-09-01T08:19:13.551Z,101232.50
2023-09-01T08:21:40.102Z,101232.09
2023-09-01T08:24:08.196Z,101234.13
2023-09-01T08:26:35.052Z,101226.97
2023-09-01T08:29:01.481Z,101236.78
2023-09-01T08:31:28.009Z,101235.97
2023-09-01T08:33:55.355Z,101226.84
2023-09-01T08:36:22.749Z,101235.41
2023-09-01T08:38:49.244Z,101226.31
2023-09-01T08:41:15.738Z,101226.31
2023-09-01T08:43:43.552Z,101217.53
2023-09-01T08:46:14.974Z,101225.81
2023-09-01T08:48:42.733Z,101226.47
2023-09-01T08:51:09.773Z,101215.34
2023-09-01T08:53:40.082Z,101224.19
2023-09-01T08:56:06.780Z,101234.13
2023-09-01T08:58:33.811Z,101226.66
2023-09-01T09:01:00.518Z,101233.13
2023-09-01T09:03:27.203Z,101213.31
2023-09-01T09:05:54.254Z,101223.56
2023-09-01T09:08:21.472Z,101235.06
2023-09-01T09:10:47.930Z,101226.41
2023-09-01T09:13:25.441Z,101236.75
2023-09-01T09:16:07.005Z,101237.38
2023-09-01T09:18:33.755Z,101224.09
2023-09-01T09:21:00.833Z,101255.72
2023-09-01T09:23:46.599Z,101259.66
2023-09-01T09:26:13.653Z,101267.03
2023-09-01T09:28:41.452Z,101232.19
2023-09-01T09:31:08.072Z,101257.00
2023-09-01T09:33:35.459Z,101254.53
2023-09-01T09:36:04.524Z,101261.50
2023-09-01T09:38:45.017Z,101276.97
2023-09-01T09:41:11.532Z,101284.63
2023-09-01T09:43:49.103Z,101283.25
2023-09-01T09:46:17.395Z,101281.81
2023-09-01T09:48:44.842Z,101289.25
2023-09-01T09:51:11.707Z,101278.94
2023-09-01T09:53:42.633Z,101297.66
2023-09-01T09:56:15.023Z,101292.13
2023-09-01T09:58:41.911Z,101299.44
2023-09-01T10:01:19.102Z,101239.63
2023-09-01T10:03:47.559Z,101288.84
2023-09-01T10:06:15.910Z,101275.56
2023-09-01T10:08:43.175Z,101279.84
2023-09-01T10:11:10.518Z,101277.34
2023-09-01T10:13:37.986Z,101252.09
2023-09-01T10:16:04.736Z,101279.41
2023-09-01T10:18:32.473Z,101266.53
2023-09-01T10:20:59.012Z,101271.78
2023-09-01T10:23:26.111Z,101285.34
2023-09-01T10:26:17.900Z,101280.28
2023-09-01T10:29:17.672Z,101276.88
2023-09-01T10:31:45.372Z,101283.53
2023-09-01T10:34:16.202Z,101275.31
2023-09-01T10:36:44.413Z,101273.28
2023-09-01T10:39:20.026Z,101276.69
2023-09-01T10:42:04.246Z,101266.66
2023-09-01T10:44:45.733Z,101281.75
2023-09-01T10:47:34.414Z,101280.28
2023-09-01T10:50:04.020Z,101283.59
2023-09-01T10:52:32.730Z,101275.03
2023-09-01T10:55:05.253Z,101277.69
2023-09-01T10:57:50.264Z,101272.63
2023-09-01T11:00:34.156Z,101282.31
2023-09-01T11:03:32.341Z,101284.53
2023-09-01T11:06:00.452Z,101290.13
2023-09-01T11:08:27.522Z,101280.88
2023-09-01T11:11:06.945Z,101297.88
2023-09-01T11:13:33.637Z,101292.94
2023-09-01T11:16:09.156Z,101286.28
2023-09-01T11:18:35.857Z,101308.59
2023-09-01T11:21:02.450Z,101306.91
2023-09-01T11:23:33.945Z,101299.25
2023-09-01T11:26:01.535Z,101290.84
2023-09-01T11:28:29.411Z,101304.91
2023-09-01T11:30:58.077Z,101302.31
2023-09-01T11:33:26.374Z,101268.97
2023-09-01T11:36:05.925Z,101287.66
2023-09-01T11:38:32.526Z,101304.31
2023-09-01T11:41:01.200Z,101315.56
2023-09-01T11:43:30.261Z,101306.97
2023-09-01T11:45:58.562Z,101323.97
2023-09-01T11:48:26.182Z,101309.19
2023-09-01T11:50:58.507Z,101296.59
2023-09-01T11:53:28.058Z,101319.53
2023-09-01T11:55:59.739Z,101317.78
2023-09-01T11:58:45.578Z,101321.56
2023-09-01T12:01:13.172Z,101326.81
2023-09-01T12:03:43.860Z,101331.34
2023-09-01T12:06:25.913Z,101338.69
2023-09-01T12:08:54.275Z,101333.72
2023-09-01T12:11:23.285Z,101333.06
2023-09-01T12:13:50.015Z,101343.22
2023-09-01T12:16:24.814Z,101336.00
2023-09-01T12:18:52.950Z,101344.03
2023-09-01T12:21:19.875Z,101343.13
2023-09-01T12:23:48.018Z,101350.41
2023-09-01T12:26:16.978Z,101339.38
2023-09-01T12:28:44.700Z,101353.19
2023-09-01T12:31:12.544Z,101342.41
2023-09-01T12:33:39.437Z,101339.66
2023-09-01T12:36:06.146Z,101354.00
2023-09-01T12:38:32.750Z,101350.34
2023-09-01T12:40:59.256Z,101357.97
2023-09-01T12:43:25.691Z,101365.72
2023-09-01T12:45:52.308Z,101352.63
2023-09-01T12:48:18.995Z,101363.44
2023-09-01T12:50:47.763Z,101330.44
2023-09-01T12:53:15.641Z,101369.41
2023-09-01T12:55:42.470Z,101363.22
2023-09-01T12:58:09.767Z,101374.13
2023-09-01T13:00:36.234Z,101364.16
2023-09-01T13:03:02.782Z,101373.19
2023-09-01T13:05:31.698Z,101339.06
2023-09-01T13:08:00.622Z,101367.84
2023-09-01T13:10:28.272Z,101357.41
2023-09-01T13:12:54.953Z,101391.53
2023-09-01T13:15:21.538Z,101382.41
2023-09-01T13:17:48.480Z,101387.94
2023-09-01T13:20:16.139Z,101379.91
2023-09-01T13:22:43.103Z,101390.59
2023-09-01T13:25:10.771Z,101385.25
2023-09-01T13:27:37.420Z,101384.41
2023-09-01T13:30:04.394Z,101387.75
2023-09-01T13:32:30.898Z,101381.94
2023-09-01T13:34:57.371Z,101395.78
2023-09-01T13:37:26.192Z,101386.94
2023-09-01T13:40:00.574Z,101390.44
2023-09-01T13:42:28.102Z,101396.44
2023-09-01T13:44:58.652Z,101385.81
2023-09-01T13:47:26.131Z,101401.56
2023-09-01T13:49:56.340Z,101403.88
2023-09-01T13:52:23.437Z,101410.53
2023-09-01T13:54:51.790Z,101398.19
2023-09-01T13:57:18.858Z,101403.13
2023-09-01T13:59:45.406Z,101390.53
2023-09-01T14:02:11.974Z,101409.41
2023-09-01T14:04:38.550Z,101405.75
2023-09-01T14:07:05.191Z,101401.38
2023-09-01T14:09:32.288Z,101379.00
2023-09-01T14:11:58.891Z,101405.09
2023-09-01T14:14:25.376Z,101406.50
2023-09-01T14:16:51.884Z,101404.38
2023-09-01T14:19:18.378Z,101393.84
2023-09-01T14:21:45.137Z,101414.59
2023-09-01T14:24:15.638Z,101402.31
2023-09-01T14:26:42.666Z,101397.78
2023-09-01T14:29:09.296Z,101399.91
2023-09-01T14:31:35.772Z,101406.78
2023-09-01T14:34:02.207Z,101390.81
2023-09-01T14:36:29.057Z,101393.19
2023-09-01T14:38:56.812Z,101383.91
2023-09-01T14:41:23.455Z,101384.56
2023-09-01T14:43:50.185Z,101383.09
2023-09-01T14:46:18.734Z,101388.84
2023-09-01T14:48:47.241Z,101390.66
2023-09-01T14:51:17.920Z,101385.53
2023-09-01T14:53:47.189Z,101397.94
2023-09-01T14:56:15.407Z,101396.25
2023-09-01T14:58:42.165Z,101398.44
2023-09-01T15:01:08.650Z,101393.22
2023-09-01T15:03:35.239Z,101391.41
2023-09-01T15:06:01.847Z,101390.66
2023-09-01T15:08:28.272Z,101391.84
2023-09-01T15:10:56.013Z,101395.75
2023-09-01T15:13:23.231Z,101397.22
2023-09-01T15:15:50.595Z,101395.91
2023-09-01T15:18:17.596Z,101405.41
2023-09-01T15:20:44.399Z,101415.38
2023-09-01T15:23:10.926Z,101397.63
2023-09-01T15:25:38.812Z,101395.59
2023-09-01T15:28:05.983Z,101394.84
2023-09-01T15:30:32.572Z,101392.16
2023-09-01T15:32:59.013Z,101390.13
2023-09-01T15:35:28.717Z,101398.78
2023-09-01T15:37:57.304Z,101393.63
2023-09-01T15:40:23.973Z,101381.25
2023-09-01T15:42:54.804Z,101394.25
2023-09-01T15:45:21.473Z,101389.88
2023-09-01T15:47:48.060Z,101410.03
2023-09-01T15:50:17.702Z,101379.50
2023-09-01T15:52:46.847Z,101412.06
2023-09-01T15:55:13.330Z,101410.03
2023-09-01T15:57:40.922Z,101391.09
2023-09-01T16:00:08.976Z,101403.50
2023-09-01T16:02:35.529Z,101395.50
2023-09-01T16:05:02.130Z,101405.59
2023-09-01T16:07:28.801Z,101405.88
2023-09-01T16:09:55.242Z,101396.91
2023-09-01T16:12:21.752Z,101402.47
2023-09-01T16:14:48.238Z,101401.56
2023-09-01T16:17:14.978Z,101402.78
2023-09-01T16:19:41.393Z,101399.63
2023-09-01T16:22:07.828Z,101402.78
2023-09-01T16:24:34.351Z,101403.78
2023-09-01T16:27:00.781Z,101396.59
2023-09-01T16:29:27.298Z,101404.19
2023-09-01T16:31:54.301Z,101403.50
2023-09-01T16:34:20.750Z,101403.06
2023-09-01T16:36:47.345Z,101414.13
2023-09-01T16:39:14.751Z,101407.88
2023-09-01T16:41:41.248Z,101398.38
2023-09-01T16:44:08.191Z,101409.72
2023-09-01T16:46:35.035Z,101409.72
2023-09-01T16:49:01.531Z,101400.34
2023-09-01T16:51:28.002Z,101415.47
2023-09-01T16:53:54.490Z,101420.34
2023-09-01T16:56:20.920Z,101427.72
2023-09-01T16:58:47.357Z,101426.59
2023-09-01T17:01:13.819Z,101432.28
2023-09-01T17:03:40.372Z,101433.69
2023-09-01T17:06:06.887Z,101433.41
2023-09-01T17:08:41.903Z,101432.13
2023-09-01T17:11:08.348Z,101440.59
2023-09-01T17:13:34.835Z,101436.91
2023-09-01T17:16:01.255Z,101415.97
2023-09-01T17:18:27.696Z,101434.25
2023-09-01T17:20:55.675Z,101436.72
2023-09-01T17:23:22.231Z,101437.47
2023-09-01T17:25:48.727Z,101450.63
2023-09-01T17:28:15.205Z,101450.00
2023-09-01T17:30:41.744Z,101452.88
2023-09-01T17:33:08.257Z,101442.53
2023-09-01T17:35:34.680Z,101455.53
2023-09-01T17:38:01.234Z,101451.56
2023-09-01T17:40:27.697Z,101447.59
2023-09-01T17:42:54.185Z,101455.25
2023-09-01T17:45:20.600Z,101464.13
2023-09-01T17:47:48.310Z,101461.59
2023-09-01T17:50:14.955Z,101458.09
2023-09-01T17:52:41.394Z,101461.25
2023-09-01T17:55:07.883Z,101471.94
2023-09-01T17:57:34.325Z,101465.72
2023-09-01T18:00:00.786Z,101474.84
2023-09-01T18:02:37.626Z,101466.78
2023-09-01T18:05:06.783Z,101486.34
2023-09-01T18:07:35.060Z,101482.72
2023-09-01T18:10:02.652Z,101495.28
2023-09-01T18:12:29.185Z,101488.16
2023-09-01T18:14:55.636Z,101476.06
2023-09-01T18:17:25.305Z,101499.38
2023-09-01T18:19:52.835Z,101463.72
2023-09-01T18:22:19.280Z,101512.47
2023-09-01T18:24:45.965Z,101509.50
2023-09-01T18:27:24.976Z,101518.19
2023-09-01T18:29:51.617Z,101513.38
2023-09-01T18:32:18.139Z,101519.91
2023-09-01T18:34:45.025Z,101506.59
2023-09-01T18:37:17.225Z,101499.81
2023-09-01T18:39:43.711Z,101520.31
2023-09-01T18:42:35.657Z,101525.31
2023-09-01T18:45:02.970Z,101524.50
2023-09-01T18:47:29.710Z,101528.16
2023-09-01T18:49:56.344Z,101523.03
2023-09-01T18:52:22.825Z,101519.88
2023-09-01T18:54:49.354Z,101523.19
2023-09-01T18:57:16.215Z,101542.16
2023-09-01T18:59:43.639Z,101545.66
2023-09-01T19:02:32.496Z,101554.50
2023-09-01T19:05:01.880Z,101569.69
2023-09-01T19:07:29.625Z,101554.22
2023-09-01T19:09:56.145Z,101558.03
2023-09-01T19:12:23.674Z,101576.25
2023-09-01T19:14:50.392Z,101577.41
2023-09-01T19:17:19.242Z,101577.94
2023-09-01T19:19:45.699Z,101582.59
2023-09-01T19:22:13.984Z,101575.94
2023-09-01T19:24:40.426Z,101571.59
2023-09-01T19:27:08.539Z,101570.78
2023-09-01T19:29:35.239Z,101582.25
2023-09-01T19:32:01.792Z,101585.56
2023-09-01T19:34:28.341Z,101592.59
2023-09-01T19:36:54.817Z,101594.91
2023-09-01T19:39:25.895Z,101602.09
2023-09-01T19:41:53.431Z,101579.91
2023-09-01T19:44:20.018Z,101603.91
2023-09-01T19:46:46.631Z,101606.59
2023-09-01T19:49:14.152Z,101596.91
2023-09-01T19:51:44.248Z,101597.28
2023-09-01T19:54:14.447Z,101602.59
2023-09-01T19:56:40.928Z,101598.44
2023-09-01T19:59:07.492Z,101603.28
2023-09-01T20:01:35.757Z,101605.09
2023-09-01T20:04:03.042Z,101604.78
2023-09-01T20:06:30.040Z,101588.16
2023-09-01T20:09:01.240Z,101604.97
2023-09-01T20:11:28.311Z,101615.28
2023-09-01T20:13:55.204Z,101618.97
2023-09-01T20:16:32.569Z,101631.63
2023-09-01T20:19:17.841Z,101611.78
2023-09-01T20:21:44.391Z,101630.66
2023-09-01T20:24:10.867Z,101624.16
2023-09-01T20:26:37.322Z,101628.13
2023-09-01T20:29:05.188Z,101623.63
2023-09-01T20:31:31.744Z,101606.81
2023-09-01T20:33:58.434Z,101618.00
2023-09-01T20:36:25.211Z,101630.13
2023-09-01T20:38:51.752Z,101629.47
2023-09-01T20:41:18.899Z,101645.34
2023-09-01T20:43:45.324Z,101648.31
2023-09-01T20:46:11.927Z,101643.00
2023-09-01T20:48:38.940Z,101645.81
2023-09-01T20:51:05.841Z,101644.31
2023-09-01T20:53:32.365Z,101644.63
2023-09-01T20:56:03.511Z,101650.13
2023-09-01T20:58:30.920Z,101632.47
2023-09-01T21:00:57.826Z,101664.97
2023-09-01T21:03:24.302Z,101664.97
2023-09-01T21:05:50.778Z,101678.28
2023-09-01T21:08:17.212Z,101675.31
2023-09-01T21:10:43.645Z,101673.47
2023-09-01T21:13:10.080Z,101683.66
2023-09-01T21:15:36.572Z,101684.34
2023-09-01T21:18:03.372Z,101687.34
2023-09-01T21:20:29.912Z,101694.16
2023-09-01T21:22:56.347Z,101669.47
2023-09-01T21:25:22.832Z,101666.63
2023-09-01T21:27:49.268Z,101682.50
2023-09-01T21:30:17.916Z,101648.31
2023-09-01T21:32:45.637Z,101682.31
2023-09-01T21:35:12.796Z,101683.16
2023-09-01T21:37:39.689Z,101680.34
2023-09-01T21:40:08.716Z,101679.50
2023-09-01T21:42:36.466Z,101682.47
2023-09-01T21:45:05.018Z,101676.66
2023-09-01T21:47:33.056Z,101679.97
2023-09-01T21:49:59.595Z,101686.28
2023-09-01T21:52:26.121Z,101679.13
2023-09-01T21:54:52.536Z,101669.81
2023-09-01T21:57:19.006Z,101662.00
2023-09-01T21:59:45.453Z,101656.63
2023-09-01T22:02:12.050Z,101686.13
2023-09-01T22:04:38.590Z,101683.09
2023-09-01T22:07:06.555Z,101669.53
2023-09-01T22:09:33.598Z,101684.19
2023-09-01T22:12:00.019Z,101682.50
2023-09-01T22:14:26.486Z,101677.88
2023-09-01T22:16:53.024Z,101674.75
2023-09-01T22:19:19.471Z,101692.63
2023-09-01T22:21:46.426Z,101690.50
2023-09-01T22:24:13.901Z,101690.66
2023-09-01T22:26:40.521Z,101693.50
2023-09-01T22:29:07.004Z,101695.00
2023-09-01T22:31:34.000Z,101658.81
2023-09-01T22:34:00.570Z,101687.66
2023-09-01T22:36:26.986Z,101703.66
2023-09-01T22:38:53.593Z,101703.13
2023-09-01T22:41:22.197Z,101704.16
2023-09-01T22:43:48.855Z,101682.81
2023-09-01T22:46:15.297Z,101675.63
2023-09-01T22:48:41.742Z,101698.47
2023-09-01T22:51:08.170Z,101700.47
2023-09-01T22:53:34.578Z,101705.13
2023-09-01T22:56:01.057Z,101689.97
2023-09-01T22:58:27.494Z,101709.66
2023-09-01T23:00:53.929Z,101704.63
2023-09-01T23:03:20.585Z,101682.09
2023-09-01T23:05:47.336Z,101707.81
2023-09-01T23:08:13.764Z,101699.28
2023-09-01T23:10:40.168Z,101692.44
2023-09-01T23:13:06.618Z,101715.13
2023-09-01T23:15:33.058Z,101701.97
2023-09-01T23:17:59.553Z,101705.78
2023-09-01T23:20:26.545Z,101717.47
2023-09-01T23:22:53.058Z,101719.28
2023-09-01T23:25:19.846Z,101696.75
2023-09-01T23:27:46.395Z,101714.78
2023-09-01T23:30:13.638Z,101707.59
2023-09-01T23:32:40.133Z,101721.28
2023-09-01T23:35:06.960Z,101734.13
2023-09-01T23:37:34.359Z,101730.28
2023-09-01T23:40:00.808Z,101723.94
2023-09-01T23:42:27.425Z,101733.94
2023-09-01T23:44:54.879Z,101707.94
2023-09-01T23:47:21.425Z,101722.09
2023-09-01T23:49:47.939Z,101713.25
2023-09-01T23:52:14.399Z,101742.59
2023-09-01T23:54:40.894Z,101719.44
2023-09-01T23:57:07.312Z,101729.28
2023-09-01T23:59:33.753Z,101717.59
